createdAt,value
2022-11-09T00:01:02.579Z,11.8
2022-11-09T00:06:02.518Z,11.7
2022-11-09T00:16:02.604Z,11.8
2022-11-09T00:21:02.591Z,11.8
2022-11-09T00:26:02.550Z,11.8
2022-11-09T00:31:02.646Z,11.8
2022-11-09T00:36:02.589Z,11.7
2022-11-09T00:41:04.644Z,11.7
2022-11-09T00:51:02.636Z,11.6
2022-11-09T00:56:02.697Z,11.6
2022-11-09T01:01:02.729Z,11.6
2022-11-09T01:06:02.674Z,11.6
2022-11-09T01:11:02.717Z,11.6
2022-11-09T01:16:02.684Z,11.6
2022-11-09T01:21:02.815Z,11.6
2022-11-09T01:36:02.857Z,11.5
2022-11-09T01:41:02.894Z,11.5
2022-11-09T01:46:02.830Z,11.5
2022-11-09T01:51:02.832Z,11.5
2022-11-09T01:56:04.919Z,11.4
2022-11-09T02:01:02.921Z,11.4
2022-11-09T02:06:02.851Z,11.3
2022-11-09T02:11:04.882Z,11.3
2022-11-09T02:16:02.953Z,11.3
2022-11-09T02:21:02.843Z,11.3
2022-11-09T02:26:06.891Z,11.3
2022-11-09T02:31:02.922Z,11.3
2022-11-09T02:36:02.977Z,11.3
2022-11-09T02:41:02.929Z,11.2
2022-11-09T02:46:02.958Z,11.3
2022-11-09T02:51:03.349Z,11.2
2022-11-09T02:56:02.894Z,11.2
2022-11-09T03:01:02.962Z,11.3
2022-11-09T03:06:02.869Z,11.2
2022-11-09T03:16:02.865Z,11.4
2022-11-09T03:21:02.796Z,11.4
2022-11-09T03:26:02.804Z,11.2
2022-11-09T03:31:02.769Z,11.0
2022-11-09T03:36:02.784Z,10.9
2022-11-09T03:41:02.786Z,10.8
2022-11-09T03:56:02.735Z,10.7
2022-11-09T04:01:02.733Z,10.6
2022-11-09T04:06:02.781Z,10.6
2022-11-09T04:11:02.884Z,10.6
2022-11-09T04:16:02.715Z,10.6
2022-11-09T04:21:02.741Z,10.6
2022-11-09T04:26:05.270Z,10.6
2022-11-09T04:31:02.704Z,10.6
2022-11-09T04:36:02.708Z,10.6
2022-11-09T04:41:02.709Z,10.6
2022-11-09T04:46:02.714Z,10.6
2022-11-09T04:51:02.702Z,10.6
2022-11-09T04:56:02.726Z,10.6
2022-11-09T05:01:02.704Z,10.6
2022-11-09T05:06:02.756Z,10.6
2022-11-09T05:11:02.734Z,10.6
2022-11-09T05:16:02.820Z,10.6
2022-11-09T05:26:02.834Z,10.6
2022-11-09T05:31:02.799Z,10.6
2022-11-09T05:36:02.837Z,10.6
2022-11-09T05:41:02.798Z,10.6
2022-11-09T05:46:06.522Z,10.6
2022-11-09T05:51:02.977Z,10.7
2022-11-09T05:56:02.880Z,10.6
2022-11-09T06:01:02.908Z,10.6
2022-11-09T06:06:08.029Z,10.6
2022-11-09T06:11:05.529Z,10.5
2022-11-09T06:16:04.993Z,10.4
2022-11-09T06:21:03.082Z,10.4
2022-11-09T06:26:03.060Z,10.3
2022-11-09T06:31:03.044Z,10.2
2022-11-09T06:36:03.058Z,10.2
2022-11-09T06:41:03.005Z,10.1
2022-11-09T06:46:03.002Z,10.1
2022-11-09T06:51:02.978Z,10.1
2022-11-09T06:56:03.006Z,10.1
2022-11-09T07:01:02.992Z,10.0
2022-11-09T07:06:02.967Z,9.9
2022-11-09T07:11:05.070Z,9.9
2022-11-09T07:16:02.961Z,9.9
2022-11-09T07:21:02.879Z,9.9
2022-11-09T07:26:02.892Z,9.8
2022-11-09T07:31:02.849Z,9.8
2022-11-09T07:36:04.872Z,9.8
2022-11-09T07:41:02.726Z,9.8
2022-11-09T07:46:02.664Z,9.8
2022-11-09T07:51:02.629Z,9.8
2022-11-09T07:56:02.641Z,9.8
2022-11-09T08:01:02.673Z,9.8
2022-11-09T08:11:02.511Z,9.9
2022-11-09T08:16:02.495Z,9.9
2022-11-09T08:21:02.452Z,9.9
2022-11-09T08:26:02.703Z,10.0
2022-11-09T08:36:02.356Z,10.1
2022-11-09T08:46:02.278Z,10.2
2022-11-09T08:51:04.225Z,10.3
2022-11-09T08:56:02.229Z,10.4
2022-11-09T09:01:04.689Z,10.4
2022-11-09T09:06:02.215Z,10.6
2022-11-09T09:11:02.184Z,10.6
2022-11-09T09:16:02.217Z,10.7
2022-11-09T09:21:02.274Z,10.8
2022-11-09T09:26:02.715Z,10.9
2022-11-09T09:31:02.320Z,11.0
2022-11-09T09:36:02.363Z,11.1
2022-11-09T09:41:02.552Z,11.2
2022-11-09T09:46:02.425Z,11.4
2022-11-09T09:51:02.446Z,11.5
2022-11-09T09:56:02.607Z,11.6
2022-11-09T10:06:02.524Z,11.8
2022-11-09T10:11:02.821Z,11.9
2022-11-09T10:16:02.614Z,11.9
2022-11-09T10:21:02.614Z,12.1
2022-11-09T10:26:05.301Z,12.2
2022-11-09T10:31:02.651Z,12.2
2022-11-09T10:36:07.871Z,12.3
2022-11-09T10:41:02.748Z,12.4
2022-11-09T10:46:02.827Z,12.6
2022-11-09T10:51:02.858Z,12.8
2022-11-09T10:56:02.936Z,12.8
2022-11-09T11:01:05.576Z,12.9
2022-11-09T11:06:03.062Z,13.0
2022-11-09T11:11:27.112Z,13.1
2022-11-09T11:16:05.256Z,13.1
2022-11-09T11:21:03.335Z,13.1
2022-11-09T11:26:03.419Z,13.1
2022-11-09T11:31:05.526Z,13.2
2022-11-09T11:36:03.581Z,13.4
2022-11-09T11:41:03.650Z,13.5
2022-11-09T11:46:03.821Z,13.6
2022-11-09T11:56:04.019Z,13.5
2022-11-09T12:01:04.106Z,13.6
2022-11-09T12:06:04.184Z,13.8
2022-11-09T12:11:04.380Z,13.8
2022-11-09T12:16:04.498Z,14.0
2022-11-09T12:21:04.629Z,14.1
2022-11-09T12:26:04.733Z,14.1
2022-11-09T12:31:06.865Z,14.0
2022-11-09T12:36:05.080Z,13.8
2022-11-09T12:41:05.059Z,13.6
2022-11-09T12:46:05.175Z,13.5
2022-11-09T12:51:05.243Z,13.7
2022-11-09T12:56:05.382Z,14.2
2022-11-09T13:01:05.482Z,14.5
2022-11-09T13:06:05.620Z,14.9
2022-11-09T13:11:07.780Z,14.9
2022-11-09T13:16:05.949Z,14.9
2022-11-09T13:21:06.105Z,14.6
2022-11-09T13:26:08.252Z,14.4
2022-11-09T13:31:06.367Z,14.3
2022-11-09T13:36:06.543Z,14.4
2022-11-09T13:41:08.696Z,14.5
2022-11-09T13:46:06.705Z,14.7
2022-11-09T13:51:06.835Z,14.7
2022-11-09T13:56:07.002Z,14.8
2022-11-09T14:01:07.157Z,15.0
2022-11-09T14:06:07.278Z,15.1
2022-11-09T14:11:07.433Z,15.4
2022-11-09T14:16:09.547Z,15.3
2022-11-09T14:21:10.201Z,15.2
2022-11-09T14:26:07.842Z,14.9
2022-11-09T14:31:07.971Z,14.8
2022-11-09T14:36:08.109Z,14.7
2022-11-09T14:46:08.439Z,14.4
2022-11-09T14:51:12.536Z,14.2
2022-11-09T14:56:08.665Z,14.1
2022-11-09T15:01:08.790Z,13.9
2022-11-09T15:06:08.908Z,13.8
2022-11-09T15:11:11.025Z,13.7
2022-11-09T15:16:09.128Z,13.6
2022-11-09T15:21:13.201Z,13.6
2022-11-09T15:26:09.293Z,13.5
2022-11-09T15:31:09.419Z,13.3
2022-11-09T15:36:09.519Z,13.2
2022-11-09T15:41:09.600Z,13.2
2022-11-09T15:46:09.810Z,13.2
2022-11-09T15:51:09.812Z,13.2
2022-11-09T15:56:09.837Z,13.1
2022-11-09T16:01:09.951Z,12.9
2022-11-09T16:06:10.015Z,12.8
2022-11-09T16:11:10.038Z,12.7
2022-11-09T16:16:10.094Z,12.7
2022-11-09T16:21:12.142Z,12.6
2022-11-09T16:26:12.200Z,12.5
2022-11-09T16:31:12.266Z,12.4
2022-11-09T16:36:10.293Z,12.3
2022-11-09T16:41:10.402Z,12.2
2022-11-09T16:46:10.435Z,12.1
2022-11-09T16:51:10.483Z,12.0
2022-11-09T16:56:10.566Z,11.9
2022-11-09T17:01:12.551Z,11.8
2022-11-09T17:06:10.608Z,11.7
2022-11-09T17:11:10.662Z,11.6
2022-11-09T17:16:10.689Z,11.5
2022-11-09T17:21:10.684Z,11.4
2022-11-09T17:26:13.209Z,11.4
2022-11-09T17:31:10.779Z,11.2
2022-11-09T17:36:10.828Z,11.2
2022-11-09T17:41:10.840Z,11.0
2022-11-09T17:46:10.875Z,10.9
2022-11-09T17:51:10.829Z,10.9
2022-11-09T17:56:10.873Z,10.9
2022-11-09T18:01:10.978Z,10.8
2022-11-09T18:21:10.985Z,10.4
2022-11-09T18:26:11.014Z,10.2
2022-11-09T18:36:12.941Z,10.2
2022-11-09T18:41:10.949Z,10.2
2022-11-09T18:46:10.918Z,10.2
2022-11-09T18:51:10.934Z,10.2
2022-11-09T18:56:10.887Z,10.1
2022-11-09T19:01:10.887Z,10.2
2022-11-09T19:06:10.968Z,10.1
2022-11-09T19:11:10.822Z,10.1
2022-11-09T19:16:10.791Z,10.1
2022-11-09T19:21:10.764Z,10.1
2022-11-09T19:26:10.827Z,10.1
2022-11-09T19:31:10.770Z,10.0
2022-11-09T19:41:10.803Z,10.0
2022-11-09T19:46:10.769Z,10.0
2022-11-09T19:51:10.795Z,10.0
2022-11-09T20:01:10.802Z,10.0
2022-11-09T20:06:10.646Z,10.1
2022-11-09T20:11:10.649Z,10.1
2022-11-09T20:16:10.665Z,10.1
2022-11-09T20:21:10.631Z,10.2
2022-11-09T20:26:10.619Z,10.2
2022-11-09T20:31:10.629Z,10.2
2022-11-09T20:36:10.596Z,10.1
2022-11-09T20:41:10.598Z,10.1
2022-11-09T20:46:10.589Z,10.1
2022-11-09T20:51:10.671Z,10.1
2022-11-09T21:01:10.698Z,10.1
2022-11-09T21:06:10.682Z,10.1
2022-11-09T21:11:10.658Z,10.1
2022-11-09T21:16:10.643Z,10.1
2022-11-09T21:21:13.159Z,10.1
2022-11-09T21:26:10.664Z,10.0
2022-11-09T21:31:10.691Z,10.1
2022-11-09T21:36:10.718Z,10.0
2022-11-09T21:41:10.709Z,10.0
2022-11-09T21:46:10.757Z,10.0
2022-11-09T21:51:11.457Z,10.1
2022-11-09T21:56:13.202Z,9.9
2022-11-09T22:01:10.758Z,9.9
2022-11-09T22:06:11.398Z,9.7
2022-11-09T22:11:10.746Z,9.6
2022-11-09T22:16:10.959Z,9.5
2022-11-09T22:21:10.635Z,9.4
2022-11-09T22:26:10.774Z,9.4
2022-11-09T22:31:11.246Z,9.2
2022-11-09T22:36:10.605Z,9.2
2022-11-09T22:41:10.568Z,9.1
2022-11-09T22:46:10.568Z,9.0
2022-11-09T22:51:10.573Z,9.1
2022-11-09T22:56:10.474Z,9.1
2022-11-09T23:01:10.466Z,9.1
2022-11-09T23:06:10.452Z,9.2
2022-11-09T23:11:12.519Z,9.4
2022-11-09T23:16:10.402Z,9.7
2022-11-09T23:21:10.352Z,9.9
2022-11-09T23:26:10.314Z,9.9
2022-11-09T23:31:10.274Z,10.0
2022-11-09T23:36:10.261Z,10.1
2022-11-09T23:41:10.276Z,9.9
2022-11-09T23:46:10.233Z,9.9
2022-11-09T23:51:12.176Z,9.9
